sensor_id;sensor_type;location;lat;lon;timestamp;pressure;altitude;pressure_sealevel;temperature;humidity
5146;BME280;2591;48.144;15.152;2024-03-06T00:00:57;76524.75;;;-144.65;100.00
5146;BME280;2591;48.144;15.152;2024-03-06T00:03:44;76534.94;;;-144.65;100.00
5146;BME280;2591;48.144;15.152;2024-03-06T00:06:30;76534.94;;;-144.65;100.00
5146;BME280;2591;48.144;15.152;2024-03-06T00:09:16;76547.16;;;-144.65;100.00
5146;BME280;2591;48.144;15.152;2024-03-06T00:12:04;76534.94;;;-144.65;100.00
5146;BME280;2591;48.144;15.152;2024-03-06T00:14:51;76545.13;;;-144.65;100.00
5146;BME280;2591;48.144;15.152;2024-03-06T00:17:39;76551.25;;;-144.65;100.00
5146;BME280;2591;48.144;15.152;2024-03-06T00:20:26;76534.94;;;-144.65;100.00
5146;BME280;2591;48.144;15.152;2024-03-06T00:23:13;76528.81;;;-144.65;100.00
5146;BME280;2591;48.144;15.152;2024-03-06T00:25:59;76514.53;;;-144.65;100.00
5146;BME280;2591;48.144;15.152;2024-03-06T00:28:47;76526.78;;;-144.65;100.00
5146;BME280;2591;48.144;15.152;2024-03-06T00:31:34;76528.81;;;-144.65;100.00
5146;BME280;2591;48.144;15.152;2024-03-06T00:34:22;76522.69;;;-144.65;100.00
5146;BME280;2591;48.144;15.152;2024-03-06T00:37:08;76526.78;;;-144.65;100.00
5146;BME280;2591;48.144;15.152;2024-03-06T00:39:54;76539.00;;;-144.65;100.00
5146;BME280;2591;48.144;15.152;2024-03-06T00:42:41;76543.09;;;-144.65;100.00
5146;BME280;2591;48.144;15.152;2024-03-06T00:45:27;76555.31;;;-144.65;100.00
5146;BME280;2591;48.144;15.152;2024-03-06T00:48:13;76551.25;;;-144.65;100.00
5146;BME280;2591;48.144;15.152;2024-03-06T00:51:01;76579.78;;;-144.65;100.00
5146;BME280;2591;48.144;15.152;2024-03-06T00:53:48;76577.75;;;-144.65;100.00
5146;BME280;2591;48.144;15.152;2024-03-06T00:56:37;76571.63;;;-144.65;100.00
5146;BME280;2591;48.144;15.152;2024-03-06T00:59:23;76567.56;;;-144.65;100.00
5146;BME280;2591;48.144;15.152;2024-03-06T01:02:11;76565.53;;;-144.65;100.00
5146;BME280;2591;48.144;15.152;2024-03-06T01:04:58;76577.75;;;-144.65;100.00
5146;BME280;2591;48.144;15.152;2024-03-06T01:07:46;76594.06;;;-144.65;100.00
5146;BME280;2591;48.144;15.152;2024-03-06T01:10:33;76608.34;;;-144.65;100.00
5146;BME280;2591;48.144;15.152;2024-03-06T01:13:20;76604.28;;;-144.65;100.00
5146;BME280;2591;48.144;15.152;2024-03-06T01:16:06;76600.19;;;-144.65;100.00
5146;BME280;2591;48.144;15.152;2024-03-06T01:18:53;76579.78;;;-144.65;100.00
5146;BME280;2591;48.144;15.152;2024-03-06T01:21:39;76571.63;;;-144.65;100.00
5146;BME280;2591;48.144;15.152;2024-03-06T01:24:27;76563.47;;;-144.65;100.00
5146;BME280;2591;48.144;15.152;2024-03-06T01:27:13;76563.47;;;-144.65;100.00
5146;BME280;2591;48.144;15.152;2024-03-06T01:29:59;76565.53;;;-144.65;100.00
5146;BME280;2591;48.144;15.152;2024-03-06T01:32:46;76559.41;;;-144.65;100.00
5146;BME280;2591;48.144;15.152;2024-03-06T01:35:32;76563.47;;;-144.65;100.00
5146;BME280;2591;48.144;15.152;2024-03-06T01:38:19;76567.56;;;-144.65;100.00
5146;BME280;2591;48.144;15.152;2024-03-06T01:41:06;76571.63;;;-144.65;100.00
5146;BME280;2591;48.144;15.152;2024-03-06T01:43:53;76565.53;;;-144.65;100.00
5146;BME280;2591;48.144;15.152;2024-03-06T01:46:40;76563.47;;;-144.65;100.00
5146;BME280;2591;48.144;15.152;2024-03-06T01:49:26;76571.63;;;-144.65;100.00
5146;BME280;2591;48.144;15.152;2024-03-06T01:52:26;76575.72;;;-144.65;100.00
5146;BME280;2591;48.144;15.152;2024-03-06T01:55:13;76585.91;;;-144.65;100.00
5146;BME280;2591;48.144;15.152;2024-03-06T01:58:01;76577.75;;;-144.65;100.00
5146;BME280;2591;48.144;15.152;2024-03-06T02:00:48;76565.53;;;-144.65;100.00
5146;BME280;2591;48.144;15.152;2024-03-06T02:03:35;76569.59;;;-144.65;100.00
5146;BME280;2591;48.144;15.152;2024-03-06T02:06:22;76547.16;;;-144.65;100.00
5146;BME280;2591;48.144;15.152;2024-03-06T02:09:09;76553.28;;;-144.65;100.00
5146;BME280;2591;48.144;15.152;2024-03-06T02:11:55;76547.16;;;-144.65;100.00
5146;BME280;2591;48.144;15.152;2024-03-06T02:14:43;76555.31;;;-144.65;100.00
5146;BME280;2591;48.144;15.152;2024-03-06T02:17:29;76549.22;;;-144.65;100.00
5146;BME280;2591;48.144;15.152;2024-03-06T02:20:16;76545.13;;;-144.65;100.00
5146;BME280;2591;48.144;15.152;2024-03-06T02:23:04;76559.41;;;-144.65;100.00
5146;BME280;2591;48.144;15.152;2024-03-06T02:25:51;76555.31;;;-144.65;100.00
5146;BME280;2591;48.144;15.152;2024-03-06T02:28:37;76549.22;;;-144.65;100.00
5146;BME280;2591;48.144;15.152;2024-03-06T02:31:23;76543.09;;;-144.65;100.00
5146;BME280;2591;48.144;15.152;2024-03-06T02:34:10;76543.09;;;-144.65;100.00
5146;BME280;2591;48.144;15.152;2024-03-06T02:36:56;76541.06;;;-144.65;100.00
5146;BME280;2591;48.144;15.152;2024-03-06T02:39:43;76541.06;;;-144.65;100.00
5146;BME280;2591;48.144;15.152;2024-03-06T02:42:30;76530.84;;;-144.65;100.00
5146;BME280;2591;48.144;15.152;2024-03-06T02:45:17;76530.84;;;-144.65;100.00
5146;BME280;2591;48.144;15.152;2024-03-06T02:48:04;76526.78;;;-144.65;100.00
5146;BME280;2591;48.144;15.152;2024-03-06T02:50:51;76530.84;;;-144.65;100.00
5146;BME280;2591;48.144;15.152;2024-03-06T02:53:38;76528.81;;;-144.65;100.00
5146;BME280;2591;48.144;15.152;2024-03-06T02:56:26;76530.84;;;-144.65;100.00
5146;BME280;2591;48.144;15.152;2024-03-06T02:59:12;76543.09;;;-144.65;100.00
5146;BME280;2591;48.144;15.152;2024-03-06T03:01:59;76539.00;;;-144.65;100.00
5146;BME280;2591;48.144;15.152;2024-03-06T03:04:46;76563.47;;;-144.65;100.00
5146;BME280;2591;48.144;15.152;2024-03-06T03:07:32;76563.47;;;-144.65;100.00
5146;BME280;2591;48.144;15.152;2024-03-06T03:10:18;76575.72;;;-144.65;100.00
5146;BME280;2591;48.144;15.152;2024-03-06T03:13:06;76579.78;;;-144.65;100.00
5146;BME280;2591;48.144;15.152;2024-03-06T03:15:52;76585.91;;;-144.65;100.00
5146;BME280;2591;48.144;15.152;2024-03-06T03:18:38;76608.34;;;-144.65;100.00
5146;BME280;2591;48.144;15.152;2024-03-06T03:21:24;76620.56;;;-144.65;100.00
5146;BME280;2591;48.144;15.152;2024-03-06T03:24:11;76616.50;;;-144.65;100.00
5146;BME280;2591;48.144;15.152;2024-03-06T03:26:57;76620.56;;;-144.65;100.00
5146;BME280;2591;48.144;15.152;2024-03-06T03:29:44;76620.56;;;-144.65;100.00
5146;BME280;2591;48.144;15.152;2024-03-06T03:32:31;76634.84;;;-144.65;100.00
5146;BME280;2591;48.144;15.152;2024-03-06T03:35:17;76636.91;;;-144.65;100.00
5146;BME280;2591;48.144;15.152;2024-03-06T03:38:06;76628.72;;;-144.65;100.00
5146;BME280;2591;48.144;15.152;2024-03-06T03:40:53;76640.97;;;-144.65;100.00
5146;BME280;2591;48.144;15.152;2024-03-06T03:43:39;76665.44;;;-144.65;100.00
5146;BME280;2591;48.144;15.152;2024-03-06T03:46:27;76653.19;;;-144.65;100.00
5146;BME280;2591;48.144;15.152;2024-03-06T03:49:13;76665.44;;;-144.65;100.00
5146;BME280;2591;48.144;15.152;2024-03-06T03:51:59;76665.44;;;-144.65;100.00
5146;BME280;2591;48.144;15.152;2024-03-06T03:54:45;76657.28;;;-144.65;100.00
5146;BME280;2591;48.144;15.152;2024-03-06T03:57:32;76647.09;;;-144.65;100.00
5146;BME280;2591;48.144;15.152;2024-03-06T04:00:18;76636.91;;;-144.65;100.00
5146;BME280;2591;48.144;15.152;2024-03-06T04:03:06;76624.66;;;-144.65;100.00
5146;BME280;2591;48.144;15.152;2024-03-06T04:05:53;76610.38;;;-144.65;100.00
5146;BME280;2591;48.144;15.152;2024-03-06T04:08:39;76608.34;;;-144.65;100.00
5146;BME280;2591;48.144;15.152;2024-03-06T04:11:26;76610.38;;;-144.65;100.00
5146;BME280;2591;48.144;15.152;2024-03-06T04:14:13;76604.28;;;-144.65;100.00
5146;BME280;2591;48.144;15.152;2024-03-06T04:17:00;76600.19;;;-144.65;100.00
5146;BME280;2591;48.144;15.152;2024-03-06T04:19:49;76567.56;;;-144.65;100.00
5146;BME280;2591;48.144;15.152;2024-03-06T04:22:36;76536.97;;;-144.65;100.00
5146;BME280;2591;48.144;15.152;2024-03-06T04:25:22;76510.47;;;-144.65;100.00
5146;BME280;2591;48.144;15.152;2024-03-06T04:28:09;76479.88;;;-144.65;100.00
5146;BME280;2591;48.144;15.152;2024-03-06T04:30:56;76453.38;;;-144.65;100.00
5146;BME280;2591;48.144;15.152;2024-03-06T04:33:42;76435.03;;;-144.65;100.00
5146;BME280;2591;48.144;15.152;2024-03-06T04:36:30;76420.75;;;-144.65;100.00
5146;BME280;2591;48.144;15.152;2024-03-06T04:39:16;76412.59;;;-144.65;100.00
5146;BME280;2591;48.144;15.152;2024-03-06T04:42:02;76400.38;;;-144.65;100.00
5146;BME280;2591;48.144;15.152;2024-03-06T04:44:51;76400.38;;;-144.65;100.00
5146;BME280;2591;48.144;15.152;2024-03-06T04:47:37;76388.13;;;-144.65;100.00
5146;BME280;2591;48.144;15.152;2024-03-06T04:50:24;76388.13;;;-144.65;100.00
5146;BME280;2591;48.144;15.152;2024-03-06T04:53:14;76394.25;;;-144.65;100.00
5146;BME280;2591;48.144;15.152;2024-03-06T04:56:01;76404.44;;;-144.65;100.00
5146;BME280;2591;48.144;15.152;2024-03-06T04:58:47;76416.69;;;-144.65;100.00
5146;BME280;2591;48.144;15.152;2024-03-06T05:01:34;76410.56;;;-144.65;100.00
5146;BME280;2591;48.144;15.152;2024-03-06T05:04:20;76420.75;;;-144.65;100.00
5146;BME280;2591;48.144;15.152;2024-03-06T05:07:24;76426.88;;;-144.65;100.00
5146;BME280;2591;48.144;15.152;2024-03-06T05:10:30;76428.91;;;-144.65;100.00
5146;BME280;2591;48.144;15.152;2024-03-06T05:13:34;76432.97;;;-144.65;100.00
5146;BME280;2591;48.144;15.152;2024-03-06T05:16:39;76432.97;;;-144.65;100.00
5146;BME280;2591;48.144;15.152;2024-03-06T05:19:43;76441.16;;;-144.65;100.00
5146;BME280;2591;48.144;15.152;2024-03-06T05:22:47;76443.19;;;-144.65;100.00
5146;BME280;2591;48.144;15.152;2024-03-06T05:25:53;76449.28;;;-144.65;100.00
5146;BME280;2591;48.144;15.152;2024-03-06T05:28:57;76449.28;;;-144.65;100.00
5146;BME280;2591;48.144;15.152;2024-03-06T05:32:01;76461.53;;;-144.65;100.00
5146;BME280;2591;48.144;15.152;2024-03-06T05:35:07;76469.69;;;-144.65;100.00
5146;BME280;2591;48.144;15.152;2024-03-06T05:38:12;76473.75;;;-144.65;100.00
5146;BME280;2591;48.144;15.152;2024-03-06T05:41:17;76471.72;;;-144.65;100.00
5146;BME280;2591;48.144;15.152;2024-03-06T05:44:22;76473.75;;;-144.65;100.00
5146;BME280;2591;48.144;15.152;2024-03-06T05:47:26;76477.84;;;-144.65;100.00
5146;BME280;2591;48.144;15.152;2024-03-06T05:50:30;76481.91;;;-144.65;100.00
5146;BME280;2591;48.144;15.152;2024-03-06T05:53:36;76483.97;;;-144.65;100.00
5146;BME280;2591;48.144;15.152;2024-03-06T05:56:42;76486.00;;;-144.65;100.00
5146;BME280;2591;48.144;15.152;2024-03-06T05:59:46;76490.06;;;-144.65;100.00
5146;BME280;2591;48.144;15.152;2024-03-06T06:02:33;76486.00;;;-144.65;100.00
5146;BME280;2591;48.144;15.152;2024-03-06T06:05:19;76494.16;;;-144.65;100.00
5146;BME280;2591;48.144;15.152;2024-03-06T06:08:08;76498.22;;;-144.65;100.00
5146;BME280;2591;48.144;15.152;2024-03-06T06:10:54;76498.22;;;-144.65;100.00
5146;BME280;2591;48.144;15.152;2024-03-06T06:13:42;76508.44;;;-144.65;100.00
5146;BME280;2591;48.144;15.152;2024-03-06T06:16:34;76512.50;;;-144.65;100.00
5146;BME280;2591;48.144;15.152;2024-03-06T06:19:21;76514.53;;;-144.65;100.00
5146;BME280;2591;48.144;15.152;2024-03-06T06:22:07;76516.59;;;-144.65;100.00
5146;BME280;2591;48.144;15.152;2024-03-06T06:24:55;76514.53;;;-144.65;100.00
5146;BME280;2591;48.144;15.152;2024-03-06T06:27:42;76518.63;;;-144.65;100.00
5146;BME280;2591;48.144;15.152;2024-03-06T06:30:30;76514.53;;;-144.65;100.00
5146;BME280;2591;48.144;15.152;2024-03-06T06:33:17;76518.63;;;-144.65;100.00
5146;BME280;2591;48.144;15.152;2024-03-06T06:36:04;76518.63;;;-144.65;100.00
5146;BME280;2591;48.144;15.152;2024-03-06T06:38:52;76514.53;;;-144.65;100.00
5146;BME280;2591;48.144;15.152;2024-03-06T06:41:39;76512.50;;;-144.65;100.00
5146;BME280;2591;48.144;15.152;2024-03-06T06:44:26;76512.50;;;-144.65;100.00
5146;BME280;2591;48.144;15.152;2024-03-06T06:47:14;76512.50;;;-144.65;100.00
5146;BME280;2591;48.144;15.152;2024-03-06T06:50:00;76506.38;;;-144.65;100.00
5146;BME280;2591;48.144;15.152;2024-03-06T06:52:51;76512.50;;;-144.65;100.00
5146;BME280;2591;48.144;15.152;2024-03-06T06:55:37;76506.38;;;-144.65;100.00
5146;BME280;2591;48.144;15.152;2024-03-06T06:58:24;76504.34;;;-144.65;100.00
5146;BME280;2591;48.144;15.152;2024-03-06T07:01:11;76506.38;;;-144.65;100.00
5146;BME280;2591;48.144;15.152;2024-03-06T07:04:00;76498.22;;;-144.65;100.00
5146;BME280;2591;48.144;15.152;2024-03-06T07:06:47;76502.31;;;-144.65;100.00
5146;BME280;2591;48.144;15.152;2024-03-06T07:09:37;76494.16;;;-144.65;100.00
5146;BME280;2591;48.144;15.152;2024-03-06T07:12:24;76502.31;;;-144.65;100.00
5146;BME280;2591;48.144;15.152;2024-03-06T07:15:10;76502.31;;;-144.65;100.00
5146;BME280;2591;48.144;15.152;2024-03-06T07:17:57;76498.22;;;-144.65;100.00
5146;BME280;2591;48.144;15.152;2024-03-06T07:20:45;76498.22;;;-144.65;100.00
5146;BME280;2591;48.144;15.152;2024-03-06T07:23:32;76500.28;;;-144.65;100.00
5146;BME280;2591;48.144;15.152;2024-03-06T07:26:19;76504.34;;;-144.65;100.00
5146;BME280;2591;48.144;15.152;2024-03-06T07:29:05;76502.31;;;-144.65;100.00
5146;BME280;2591;48.144;15.152;2024-03-06T07:31:58;76502.31;;;-144.65;100.00
5146;BME280;2591;48.144;15.152;2024-03-06T07:34:45;76506.38;;;-144.65;100.00
5146;BME280;2591;48.144;15.152;2024-03-06T07:37:33;76514.53;;;-144.65;100.00
5146;BME280;2591;48.144;15.152;2024-03-06T07:40:20;76512.50;;;-144.65;100.00
5146;BME280;2591;48.144;15.152;2024-03-06T07:43:06;76510.47;;;-144.65;100.00
5146;BME280;2591;48.144;15.152;2024-03-06T07:45:52;76514.53;;;-144.65;100.00
5146;BME280;2591;48.144;15.152;2024-03-06T07:48:41;76508.44;;;-144.65;100.00
5146;BME280;2591;48.144;15.152;2024-03-06T07:51:29;76510.47;;;-144.65;100.00
5146;BME280;2591;48.144;15.152;2024-03-06T07:54:17;76506.38;;;-144.65;100.00
5146;BME280;2591;48.144;15.152;2024-03-06T07:57:04;76518.63;;;-144.65;100.00
5146;BME280;2591;48.144;15.152;2024-03-06T07:59:50;76508.44;;;-144.65;100.00
5146;BME280;2591;48.144;15.152;2024-03-06T08:02:39;76508.44;;;-144.65;100.00
5146;BME280;2591;48.144;15.152;2024-03-06T08:05:28;76510.47;;;-144.65;100.00
5146;BME280;2591;48.144;15.152;2024-03-06T08:08:15;76504.34;;;-144.65;100.00
5146;BME280;2591;48.144;15.152;2024-03-06T08:11:03;76502.31;;;-144.65;100.00
5146;BME280;2591;48.144;15.152;2024-03-06T08:13:56;76502.31;;;-144.65;100.00
5146;BME280;2591;48.144;15.152;2024-03-06T08:16:43;76500.28;;;-144.65;100.00
5146;BME280;2591;48.144;15.152;2024-03-06T08:19:30;76496.19;;;-144.65;100.00
5146;BME280;2591;48.144;15.152;2024-03-06T08:22:16;76494.16;;;-144.65;100.00
5146;BME280;2591;48.144;15.152;2024-03-06T08:25:04;76490.06;;;-144.65;100.00
5146;BME280;2591;48.144;15.152;2024-03-06T08:27:52;76486.00;;;-144.65;100.00
5146;BME280;2591;48.144;15.152;2024-03-06T08:30:39;76486.00;;;-144.65;100.00
5146;BME280;2591;48.144;15.152;2024-03-06T08:33:25;76486.00;;;-144.65;100.00
5146;BME280;2591;48.144;15.152;2024-03-06T08:36:13;76494.16;;;-144.65;100.00
5146;BME280;2591;48.144;15.152;2024-03-06T08:39:00;76498.22;;;-144.65;100.00
5146;BME280;2591;48.144;15.152;2024-03-06T08:41:46;76492.13;;;-144.65;100.00
5146;BME280;2591;48.144;15.152;2024-03-06T08:44:34;76490.06;;;-144.65;100.00
5146;BME280;2591;48.144;15.152;2024-03-06T08:47:21;76500.28;;;-144.65;100.00
5146;BME280;2591;48.144;15.152;2024-03-06T08:50:08;76490.06;;;-144.65;100.00
5146;BME280;2591;48.144;15.152;2024-03-06T08:52:55;76490.06;;;-144.65;100.00
5146;BME280;2591;48.144;15.152;2024-03-06T08:55:42;76477.84;;;-144.65;100.00
5146;BME280;2591;48.144;15.152;2024-03-06T08:58:28;76471.72;;;-144.65;100.00
5146;BME280;2591;48.144;15.152;2024-03-06T09:01:16;76455.41;;;-144.65;100.00
5146;BME280;2591;48.144;15.152;2024-03-06T09:04:05;76461.53;;;-144.65;100.00
5146;BME280;2591;48.144;15.152;2024-03-06T09:06:52;76453.38;;;-144.65;100.00
5146;BME280;2591;48.144;15.152;2024-03-06T09:09:40;76447.25;;;-144.65;100.00
5146;BME280;2591;48.144;15.152;2024-03-06T09:12:26;76447.25;;;-144.65;100.00
5146;BME280;2591;48.144;15.152;2024-03-06T09:15:14;76437.06;;;-144.65;100.00
5146;BME280;2591;48.144;15.152;2024-03-06T09:18:03;76439.09;;;-144.65;100.00
5146;BME280;2591;48.144;15.152;2024-03-06T09:20:50;76432.97;;;-144.65;100.00
5146;BME280;2591;48.144;15.152;2024-03-06T09:23:38;76420.75;;;-144.65;100.00
5146;BME280;2591;48.144;15.152;2024-03-06T09:26:24;76428.91;;;-144.65;100.00
5146;BME280;2591;48.144;15.152;2024-03-06T09:29:10;76428.91;;;-144.65;100.00
5146;BME280;2591;48.144;15.152;2024-03-06T09:31:57;76424.84;;;-144.65;100.00
5146;BME280;2591;48.144;15.152;2024-03-06T09:34:45;76424.84;;;-144.65;100.00
5146;BME280;2591;48.144;15.152;2024-03-06T09:37:33;76424.84;;;-144.65;100.00
5146;BME280;2591;48.144;15.152;2024-03-06T09:40:21;76432.97;;;-144.65;100.00
5146;BME280;2591;48.144;15.152;2024-03-06T09:43:08;76424.84;;;-144.65;100.00
5146;BME280;2591;48.144;15.152;2024-03-06T09:45:56;76424.84;;;-144.65;100.00
5146;BME280;2591;48.144;15.152;2024-03-06T09:48:46;76428.91;;;-144.65;100.00
5146;BME280;2591;48.144;15.152;2024-03-06T09:51:34;76432.97;;;-144.65;100.00
5146;BME280;2591;48.144;15.152;2024-03-06T09:54:22;76437.06;;;-144.65;100.00
5146;BME280;2591;48.144;15.152;2024-03-06T09:57:11;76432.97;;;-144.65;100.00
5146;BME280;2591;48.144;15.152;2024-03-06T09:59:58;76426.88;;;-144.65;100.00
5146;BME280;2591;48.144;15.152;2024-03-06T10:02:50;76424.84;;;-144.65;100.00
5146;BME280;2591;48.144;15.152;2024-03-06T10:05:37;76416.69;;;-144.65;100.00
5146;BME280;2591;48.144;15.152;2024-03-06T10:08:25;76408.53;;;-144.65;100.00
5146;BME280;2591;48.144;15.152;2024-03-06T10:11:13;76406.47;;;-144.65;100.00
5146;BME280;2591;48.144;15.152;2024-03-06T10:14:00;76400.38;;;-144.65;100.00
5146;BME280;2591;48.144;15.152;2024-03-06T10:16:53;76392.22;;;-144.65;100.00
5146;BME280;2591;48.144;15.152;2024-03-06T10:19:41;76386.09;;;-144.65;100.00
5146;BME280;2591;48.144;15.152;2024-03-06T10:22:35;76388.13;;;-144.65;100.00
5146;BME280;2591;48.144;15.152;2024-03-06T10:25:23;76388.13;;;-144.65;100.00
5146;BME280;2591;48.144;15.152;2024-03-06T10:28:12;76379.97;;;-144.65;100.00
5146;BME280;2591;48.144;15.152;2024-03-06T10:31:03;76379.97;;;-144.65;100.00
5146;BME280;2591;48.144;15.152;2024-03-06T10:33:53;76363.66;;;-144.65;100.00
5146;BME280;2591;48.144;15.152;2024-03-06T10:36:39;76367.75;;;-144.65;100.00
5146;BME280;2591;48.144;15.152;2024-03-06T10:39:27;76373.84;;;-144.65;98.01
5146;BME280;2591;48.144;15.152;2024-03-06T10:42:15;76373.84;;;-144.65;98.55
5146;BME280;2591;48.144;15.152;2024-03-06T10:45:04;76363.66;;;-144.65;98.61
5146;BME280;2591;48.144;15.152;2024-03-06T10:47:52;76353.47;;;-144.65;98.55
5146;BME280;2591;48.144;15.152;2024-03-06T10:50:40;76363.66;;;-144.65;97.26
5146;BME280;2591;48.144;15.152;2024-03-06T10:53:29;76359.59;;;-144.65;98.80
5146;BME280;2591;48.144;15.152;2024-03-06T10:56:18;76355.50;;;-144.65;98.34
5146;BME280;2591;48.144;15.152;2024-03-06T10:59:10;76343.28;;;-144.65;97.00
5146;BME280;2591;48.144;15.152;2024-03-06T11:01:59;76347.34;;;-144.65;96.08
5146;BME280;2591;48.144;15.152;2024-03-06T11:04:47;76355.50;;;-144.65;94.72
5146;BME280;2591;48.144;15.152;2024-03-06T11:07:34;76343.28;;;-144.65;96.06
5146;BME280;2591;48.144;15.152;2024-03-06T11:10:32;76341.22;;;-144.65;96.09
5146;BME280;2591;48.144;15.152;2024-03-06T11:13:23;76347.34;;;-144.65;95.08
5146;BME280;2591;48.144;15.152;2024-03-06T11:16:13;76347.34;;;-144.65;96.09
5146;BME280;2591;48.144;15.152;2024-03-06T11:19:07;76349.38;;;-144.65;96.39
5146;BME280;2591;48.144;15.152;2024-03-06T11:21:54;76351.44;;;-144.65;97.06
5146;BME280;2591;48.144;15.152;2024-03-06T11:24:40;76351.44;;;-144.65;97.64
5146;BME280;2591;48.144;15.152;2024-03-06T11:27:27;76351.44;;;-144.65;98.54
5146;BME280;2591;48.144;15.152;2024-03-06T11:30:19;76341.22;;;-144.65;98.58
5146;BME280;2591;48.144;15.152;2024-03-06T11:33:12;76343.28;;;-144.65;95.59
5146;BME280;2591;48.144;15.152;2024-03-06T11:36:17;76335.13;;;-144.65;93.41
5146;BME280;2591;48.144;15.152;2024-03-06T11:39:05;76326.97;;;-144.65;92.02
5146;BME280;2591;48.144;15.152;2024-03-06T11:41:53;76294.34;;;-144.65;94.34
5146;BME280;2591;48.144;15.152;2024-03-06T11:44:53;76278.03;;;-144.65;91.41
5146;BME280;2591;48.144;15.152;2024-03-06T11:47:56;76284.16;;;-144.65;88.92
5146;BME280;2591;48.144;15.152;2024-03-06T11:50:45;76280.06;;;-144.65;87.74
5146;BME280;2591;48.144;15.152;2024-03-06T11:53:33;76282.09;;;-144.65;87.46
5146;BME280;2591;48.144;15.152;2024-03-06T11:56:20;76288.22;;;-144.65;86.79
5146;BME280;2591;48.144;15.152;2024-03-06T11:59:07;76286.19;;;-144.65;87.57
5146;BME280;2591;48.144;15.152;2024-03-06T12:01:56;76282.09;;;-144.65;87.80
5146;BME280;2591;48.144;15.152;2024-03-06T12:04:43;76290.25;;;-144.65;87.47
5146;BME280;2591;48.144;15.152;2024-03-06T12:07:32;76306.56;;;-144.65;86.92
5146;BME280;2591;48.144;15.152;2024-03-06T12:10:19;76306.56;;;-144.65;87.92
5146;BME280;2591;48.144;15.152;2024-03-06T12:13:06;76306.56;;;-144.65;88.38
5146;BME280;2591;48.144;15.152;2024-03-06T12:15:53;76306.56;;;-144.65;88.87
5146;BME280;2591;48.144;15.152;2024-03-06T12:18:41;76312.69;;;-144.65;88.39
5146;BME280;2591;48.144;15.152;2024-03-06T12:21:27;76300.47;;;-144.65;88.84
5146;BME280;2591;48.144;15.152;2024-03-06T12:24:17;76290.25;;;-144.65;88.57
5146;BME280;2591;48.144;15.152;2024-03-06T12:27:06;76288.22;;;-144.65;88.90
5146;BME280;2591;48.144;15.152;2024-03-06T12:29:53;76284.16;;;-144.65;88.77
5146;BME280;2591;48.144;15.152;2024-03-06T12:32:40;76278.03;;;-144.65;89.75
5146;BME280;2591;48.144;15.152;2024-03-06T12:35:27;76273.94;;;-144.65;89.03
5146;BME280;2591;48.144;15.152;2024-03-06T12:38:14;76273.94;;;-144.65;89.89
5146;BME280;2591;48.144;15.152;2024-03-06T12:41:04;76273.94;;;-144.65;88.08
5146;BME280;2591;48.144;15.152;2024-03-06T12:43:51;76278.03;;;-144.65;87.34
5146;BME280;2591;48.144;15.152;2024-03-06T12:46:38;76271.91;;;-144.65;88.85
5146;BME280;2591;48.144;15.152;2024-03-06T12:49:24;76261.72;;;-144.65;91.16
5146;BME280;2591;48.144;15.152;2024-03-06T12:52:11;76263.75;;;-144.65;90.19
5146;BME280;2591;48.144;15.152;2024-03-06T12:54:58;76253.56;;;-144.65;88.08
5146;BME280;2591;48.144;15.152;2024-03-06T12:57:47;76257.63;;;-144.65;89.39
5146;BME280;2591;48.144;15.152;2024-03-06T13:00:37;76261.72;;;-144.65;88.82
5146;BME280;2591;48.144;15.152;2024-03-06T13:03:23;76257.63;;;-144.65;89.74
5146;BME280;2591;48.144;15.152;2024-03-06T13:06:10;76259.69;;;-144.65;89.90
5146;BME280;2591;48.144;15.152;2024-03-06T13:08:57;76239.28;;;-144.65;91.47
5146;BME280;2591;48.144;15.152;2024-03-06T13:11:44;76245.41;;;-144.65;87.78
5146;BME280;2591;48.144;15.152;2024-03-06T13:14:32;76229.09;;;-144.65;87.96
5146;BME280;2591;48.144;15.152;2024-03-06T13:17:20;76212.78;;;-144.65;87.67
5146;BME280;2591;48.144;15.152;2024-03-06T13:20:08;76204.63;;;-144.65;86.14
5146;BME280;2591;48.144;15.152;2024-03-06T13:23:00;76208.69;;;-144.65;85.98
5146;BME280;2591;48.144;15.152;2024-03-06T13:25:49;76204.63;;;-144.65;87.29
5146;BME280;2591;48.144;15.152;2024-03-06T13:28:39;76192.41;;;-144.65;84.99
5146;BME280;2591;48.144;15.152;2024-03-06T13:31:27;76210.75;;;-144.65;85.91
5146;BME280;2591;48.144;15.152;2024-03-06T13:34:19;76222.97;;;-144.65;84.51
5146;BME280;2591;48.144;15.152;2024-03-06T13:37:10;76229.09;;;-144.65;86.07
5146;BME280;2591;48.144;15.152;2024-03-06T13:39:57;76233.16;;;-144.65;85.89
5146;BME280;2591;48.144;15.152;2024-03-06T13:42:51;76222.97;;;-144.65;87.36
5146;BME280;2591;48.144;15.152;2024-03-06T13:45:48;76208.69;;;-144.65;87.08
5146;BME280;2591;48.144;15.152;2024-03-06T13:48:37;76208.69;;;-144.65;85.23
5146;BME280;2591;48.144;15.152;2024-03-06T13:51:24;76208.69;;;-144.65;85.70
5146;BME280;2591;48.144;15.152;2024-03-06T13:54:10;76204.63;;;-144.65;84.75
5146;BME280;2591;48.144;15.152;2024-03-06T13:56:57;76204.63;;;-144.65;85.32
5146;BME280;2591;48.144;15.152;2024-03-06T13:59:46;76220.94;;;-144.65;84.65
5146;BME280;2591;48.144;15.152;2024-03-06T14:02:34;76218.91;;;-144.65;83.76
5146;BME280;2591;48.144;15.152;2024-03-06T14:05:22;76214.81;;;-144.65;83.57
5146;BME280;2591;48.144;15.152;2024-03-06T14:08:12;76220.94;;;-144.65;84.31
5146;BME280;2591;48.144;15.152;2024-03-06T14:10:58;76229.09;;;-144.65;84.63
5146;BME280;2591;48.144;15.152;2024-03-06T14:13:47;76225.00;;;-144.65;83.74
5146;BME280;2591;48.144;15.152;2024-03-06T14:16:34;76216.84;;;-144.65;84.33
5146;BME280;2591;48.144;15.152;2024-03-06T14:19:21;76218.91;;;-144.65;83.95
5146;BME280;2591;48.144;15.152;2024-03-06T14:22:09;76216.84;;;-144.65;83.72
5146;BME280;2591;48.144;15.152;2024-03-06T14:24:56;76216.84;;;-144.65;83.54
5146;BME280;2591;48.144;15.152;2024-03-06T14:27:43;76222.97;;;-144.65;84.53
5146;BME280;2591;48.144;15.152;2024-03-06T14:30:30;76216.84;;;-144.65;84.93
5146;BME280;2591;48.144;15.152;2024-03-06T14:33:17;76216.84;;;-144.65;84.42